Time;durP1;ratioP1;P1;durP2;ratioP2;P2;SDS_P1;SDS_P2;PMS_P1;PMS_P2;Temp;Humidity;BMP_temperature;BMP_pressure;BME280_temperature;BME280_humidity;BME280_pressure;Samples;Min_cycle;Max_cycle;Signal;HPM_P1;HPM_P2
2022/06/16 00:00:33;;;;;;;;;5.20;5.00;;;;;18.64;49.71;100092.66;5116510;28;8954;-62
2022/06/16 00:03:01;;;;;;;;;8.80;7.80;;;;;18.60;50.10;100094.00;5116698;28;8832;-62
2022/06/16 00:05:29;;;;;;;;;8.80;6.60;;;;;18.54;50.06;100089.31;5116463;28;8839;-62
2022/06/16 00:07:57;;;;;;;;;7.80;7.80;;;;;18.46;49.91;100086.63;5111536;28;8848;-62
2022/06/16 00:10:25;;;;;;;;;9.20;9.00;;;;;18.41;50.22;100093.50;5096411;28;8857;-62
2022/06/16 00:12:53;;;;;;;;;10.00;10.00;;;;;18.35;50.45;100095.03;5096435;28;8877;-63
2022/06/16 00:15:21;;;;;;;;;7.00;6.00;;;;;18.29;50.35;100097.53;5095998;28;8972;-62
2022/06/16 00:17:49;;;;;;;;;4.20;4.20;;;;;18.25;50.76;100088.06;5099413;28;8815;-62
2022/06/16 00:20:17;;;;;;;;;5.40;4.00;;;;;18.20;50.34;100083.19;5115711;28;8924;-62
2022/06/16 00:22:45;;;;;;;;;8.40;7.20;;;;;18.15;50.72;100076.59;5116540;28;8812;-63
2022/06/16 00:25:13;;;;;;;;;6.20;6.20;;;;;18.12;50.77;100068.84;5115829;28;9534;-62
2022/06/16 00:27:41;;;;;;;;;9.00;7.60;;;;;18.08;51.05;100044.06;5083814;28;8835;-62
2022/06/16 00:30:09;;;;;;;;;3.20;3.20;;;;;18.05;50.82;100039.00;5116362;28;8847;-62
2022/06/16 00:32:37;;;;;;;;;7.00;6.00;;;;;18.00;50.94;100062.91;5116263;28;8819;-62
2022/06/16 00:35:04;;;;;;;;;9.00;7.00;;;;;17.93;51.08;100072.69;5116719;28;8824;-62
2022/06/16 00:37:32;;;;;;;;;6.80;6.80;;;;;17.87;51.05;100080.59;5113701;28;8852;-62
2022/06/16 00:40:00;;;;;;;;;7.00;7.00;;;;;17.80;51.29;100093.88;5096161;28;8845;-62
2022/06/16 00:42:28;;;;;;;;;11.20;9.80;;;;;17.71;51.16;100100.25;5096159;28;8989;-62
2022/06/16 00:44:57;;;;;;;;;10.80;10.00;;;;;17.61;52.14;100101.41;5095814;28;8844;-62
2022/06/16 00:47:24;;;;;;;;;7.00;6.00;;;;;17.55;52.09;100094.78;5097055;28;8914;-63
2022/06/16 00:49:53;;;;;;;;;9.00;9.00;;;;;17.51;51.56;100093.44;5116575;28;8851;-62
2022/06/16 00:52:20;;;;;;;;;7.40;7.40;;;;;17.47;51.76;100102.00;5116622;28;8832;-62
2022/06/16 00:54:51;;;;;;;;;5.20;5.20;;;;;17.44;52.13;100092.41;5116190;28;8858;-62
2022/06/16 00:57:19;;;;;;;;;7.50;7.50;;;;;17.42;51.51;100083.66;5115702;28;8835;-63
2022/06/16 00:59:47;;;;;;;;;6.75;6.75;;;;;17.41;51.91;100087.34;5075260;28;8828;-63
2022/06/16 01:02:19;;;;;;;;;6.00;6.00;;;;;17.42;51.50;100099.81;5075470;28;8832;-62
2022/06/16 01:04:52;;;;;;;;;9.00;9.00;;;;;17.41;51.82;100106.19;5075661;28;8863;-63
2022/06/16 01:07:20;;;;;;;;;6.40;6.40;;;;;17.41;51.94;100098.13;5075917;28;8912;-62
2022/06/16 01:09:48;;;;;;;;;6.50;6.50;;;;;17.41;52.22;100097.25;5075299;28;8856;-63
2022/06/16 01:15:01;;;;;;;;;6.00;6.00;;;;;17.42;51.63;100101.63;5074125;28;8940;-62
2022/06/16 01:17:29;;;;;;;;;7.00;7.00;;;;;17.38;51.88;100106.50;5077760;28;8852;-62
2022/06/16 01:19:57;;;;;;;;;7.50;7.50;;;;;17.37;51.79;100106.66;5094993;28;8948;-62
2022/06/16 01:22:25;;;;;;;;;9.50;8.25;;;;;17.33;51.92;100116.03;5095644;28;8832;-62
2022/06/16 01:24:52;;;;;;;;;6.25;6.00;;;;;17.27;52.26;100114.84;5095661;28;8834;-62
2022/06/16 01:27:21;;;;;;;;;7.50;6.25;;;;;17.25;52.48;100110.63;5095288;28;8968;-63
2022/06/16 01:29:48;;;;;;;;;7.00;7.00;;;;;17.23;52.28;100101.88;5075515;28;8848;-62
2022/06/16 01:32:16;;;;;;;;;5.50;5.50;;;;;17.17;52.12;100095.25;5075483;28;8866;-62
2022/06/16 01:34:44;;;;;;;;;7.50;5.00;;;;;17.14;52.04;100084.81;5075592;28;8832;-63
2022/06/16 01:37:12;;;;;;;;;6.75;6.00;;;;;17.12;52.12;100084.13;5075336;28;8874;-62
2022/06/16 01:39:40;;;;;;;;;9.25;9.00;;;;;17.07;51.90;100081.06;5113782;28;8823;-62
2022/06/16 01:42:08;;;;;;;;;9.75;9.25;;;;;17.03;52.71;100087.78;5115641;28;8964;-62
2022/06/16 01:44:36;;;;;;;;;3.25;3.25;;;;;16.97;52.28;100099.19;5115740;28;9595;-62
2022/06/16 01:47:04;;;;;;;;;11.00;8.00;;;;;16.94;52.61;100093.28;5115803;28;8831;-62
2022/06/16 01:49:32;;;;;;;;;8.00;7.00;;;;;16.91;52.65;100086.38;5098420;28;8807;-62
2022/06/16 01:52:00;;;;;;;;;9.00;8.50;;;;;16.91;52.31;100088.19;5098581;28;8952;-62
2022/06/16 01:54:28;;;;;;;;;6.00;6.00;;;;;16.94;52.60;100087.91;5099075;28;8844;-62
2022/06/16 01:56:56;;;;;;;;;6.25;6.00;;;;;16.94;52.55;100088.72;5099002;28;8830;-62
2022/06/16 01:59:24;;;;;;;;;8.50;6.75;;;;;16.92;52.99;100101.50;5114876;28;8831;-63
2022/06/16 02:01:52;;;;;;;;;9.00;7.50;;;;;16.91;52.37;100099.81;5119379;28;8835;-62
2022/06/16 02:04:20;;;;;;;;;7.00;6.25;;;;;16.91;52.61;100099.81;5119423;28;8832;-63
2022/06/16 02:06:48;;;;;;;;;8.00;6.50;;;;;16.91;52.65;100101.66;5119072;28;8970;-61
2022/06/16 02:09:16;;;;;;;;;9.50;9.25;;;;;16.94;52.73;100099.47;5103501;28;9448;-62
2022/06/16 02:11:45;;;;;;;;;11.25;9.75;;;;;16.94;52.95;100107.56;5097680;28;8972;-62
2022/06/16 02:14:13;;;;;;;;;7.00;7.00;;;;;16.95;52.49;100101.16;5098396;28;8830;-63
2022/06/16 02:16:41;;;;;;;;;6.50;6.50;;;;;16.93;52.78;100102.34;5098599;28;8846;-63
2022/06/16 02:19:09;;;;;;;;;6.50;4.00;;;;;16.86;52.90;100107.50;5111816;28;8819;-62
2022/06/16 02:21:37;;;;;;;;;6.75;6.00;;;;;16.83;52.48;100107.84;5118179;28;9596;-62
2022/06/16 02:24:05;;;;;;;;;6.50;6.50;;;;;16.80;52.74;100118.06;5118739;28;8850;-62
2022/06/16 02:26:33;;;;;;;;;8.00;8.00;;;;;16.76;52.75;100106.78;5118695;28;9508;-62
2022/06/16 02:29:01;;;;;;;;;7.00;7.00;;;;;16.74;52.62;100111.47;5105541;28;8964;-62
2022/06/16 02:31:29;;;;;;;;;8.50;7.00;;;;;16.74;52.86;100116.00;5098043;28;8850;-62
2022/06/16 02:33:57;;;;;;;;;6.50;6.00;;;;;16.71;52.54;100122.53;5097925;28;8838;-62
2022/06/16 02:36:24;;;;;;;;;6.50;6.50;;;;;16.71;52.73;100129.75;5098397;28;8853;-61
2022/06/16 02:38:53;;;;;;;;;7.75;6.50;;;;;16.71;53.07;100127.91;5108585;28;8820;-62
2022/06/16 02:41:21;;;;;;;;;6.75;6.50;;;;;16.69;53.02;100127.22;5118651;28;8855;-62
2022/06/16 02:43:49;;;;;;;;;4.00;4.00;;;;;16.68;52.88;100133.59;5118437;28;8840;-62
2022/06/16 02:46:17;;;;;;;;;7.50;7.50;;;;;16.65;52.65;100130.38;5118599;28;8843;-62
2022/06/16 02:48:46;;;;;;;;;6.50;6.50;;;;;16.63;52.76;100127.84;5108408;28;8814;-62
2022/06/16 02:51:14;;;;;;;;;9.75;9.50;;;;;16.62;53.29;100125.34;5097476;28;8822;-62
2022/06/16 02:53:43;;;;;;;;;6.00;6.00;;;;;16.60;52.82;100133.53;5097758;28;8976;-64
2022/06/16 02:56:11;;;;;;;;;6.25;6.00;;;;;16.62;53.46;100128.03;5097339;28;8919;-63
2022/06/16 02:58:39;;;;;;;;;7.50;7.00;;;;;16.61;52.45;100132.53;5105756;28;8826;-62
2022/06/16 03:01:07;;;;;;;;;6.00;6.00;;;;;16.58;52.58;100127.47;5117567;28;8842;-63
2022/06/16 03:03:34;;;;;;;;;4.00;3.50;;;;;16.56;52.89;100123.25;5118072;28;8955;-63
2022/06/16 03:06:02;;;;;;;;;9.00;7.00;;;;;16.54;52.90;100119.84;5117771;28;8944;-63
2022/06/16 03:08:30;;;;;;;;;7.50;6.75;;;;;16.54;53.21;100126.09;5110653;28;8924;-63
2022/06/16 03:10:59;;;;;;;;;7.50;7.50;;;;;16.50;53.20;100124.69;5097276;28;8840;-62
2022/06/16 03:13:26;;;;;;;;;5.25;5.25;;;;;16.43;53.20;100118.28;5096249;28;8878;-62
2022/06/16 03:15:54;;;;;;;;;6.25;6.25;;;;;16.38;53.67;100126.97;5095917;28;8960;-62
2022/06/16 03:18:22;;;;;;;;;8.00;8.00;;;;;16.33;53.31;100119.31;5101841;28;8812;-63
2022/06/16 03:20:50;;;;;;;;;7.00;6.00;;;;;16.32;54.13;100118.47;5116257;28;8951;-62
2022/06/16 03:23:18;;;;;;;;;6.00;5.00;;;;;16.30;53.41;100115.09;5116412;28;8842;-62
2022/06/16 03:25:46;;;;;;;;;10.00;7.00;;;;;16.29;53.32;100112.56;5116288;28;8958;-62
2022/06/16 03:28:13;;;;;;;;;10.75;9.00;;;;;16.27;53.91;100122.63;5112130;28;8834;-64
2022/06/16 03:30:41;;;;;;;;;8.00;7.50;;;;;16.22;53.52;100124.09;5097164;28;9507;-62
2022/06/16 03:33:09;;;;;;;;;6.75;6.75;;;;;16.14;53.90;100140.13;5097344;28;8895;-64
2022/06/16 03:35:37;;;;;;;;;7.00;6.50;;;;;16.08;53.86;100140.72;5096933;28;8844;-63
2022/06/16 03:38:05;;;;;;;;;8.50;6.75;;;;;16.04;54.05;100137.50;5099290;28;9485;-62
2022/06/16 03:40:33;;;;;;;;;7.50;6.25;;;;;16.01;54.21;100139.66;5117122;28;8827;-63
2022/06/16 03:43:01;;;;;;;;;10.50;10.50;;;;;16.01;54.23;100136.97;5117303;28;8860;-63
2022/06/16 03:45:29;;;;;;;;;6.75;6.75;;;;;16.00;54.18;100136.09;5117240;28;8959;-63
2022/06/16 03:47:56;;;;;;;;;6.75;6.75;;;;;16.02;54.33;100141.31;5115172;28;8842;-62
2022/06/16 03:50:25;;;;;;;;;9.25;9.00;;;;;16.02;54.13;100144.03;5096260;28;8980;-62
2022/06/16 03:52:52;;;;;;;;;2.50;2.50;;;;;16.00;54.15;100148.72;5096476;28;8834;-62
2022/06/16 03:55:20;;;;;;;;;7.00;6.00;;;;;15.96;54.17;100169.66;5096718;28;8822;-62
2022/06/16 03:57:48;;;;;;;;;8.00;6.25;;;;;15.89;54.37;100167.69;5096203;28;9486;-62
2022/06/16 04:00:16;;;;;;;;;7.75;7.50;;;;;15.81;54.30;100179.22;5096346;28;8957;-63
2022/06/16 04:02:44;;;;;;;;;7.00;7.00;;;;;15.74;54.39;100175.44;5095278;28;8844;-62
2022/06/16 04:05:12;;;;;;;;;6.25;6.25;;;;;15.73;54.68;100178.25;5095417;28;8968;-63
2022/06/16 04:07:39;;;;;;;;;8.00;8.00;;;;;15.71;54.47;100186.44;5095312;28;8860;-63
2022/06/16 04:10:08;;;;;;;;;6.75;5.50;;;;;15.71;54.57;100180.25;5114526;28;8912;-63
2022/06/16 04:12:35;;;;;;;;;7.00;6.25;;;;;15.70;54.58;100186.63;5115037;28;8866;-62
2022/06/16 04:15:03;;;;;;;;;9.00;7.50;;;;;15.70;54.37;100192.81;5115517;28;8857;-62
2022/06/16 04:17:31;;;;;;;;;7.25;6.50;;;;;15.74;54.39;100196.03;5116082;28;8862;-63
2022/06/16 04:20:14;;;;;;;;;6.75;6.00;;;;;15.78;54.18;100192.91;5097054;28;8964;-62
2022/06/16 04:22:42;;;;;;;;;8.50;8.50;;;;;15.82;54.00;100199.69;5095465;28;8962;-63
2022/06/16 04:25:12;;;;;;;;;6.50;6.50;;;;;15.82;54.29;100204.22;5094854;28;8841;-62
2022/06/16 04:27:40;;;;;;;;;6.50;5.00;;;;;15.87;54.02;100208.16;5094190;28;8853;-62
2022/06/16 04:30:08;;;;;;;;;7.50;6.50;;;;;15.91;54.48;100206.84;5113757;28;8946;-63
2022/06/16 04:32:36;;;;;;;;;6.00;6.00;;;;;15.91;54.16;100201.47;5115599;28;8941;-63
2022/06/16 04:35:03;;;;;;;;;7.00;6.50;;;;;15.95;54.52;100207.41;5104850;28;8822;-63
2022/06/16 04:37:32;;;;;;;;;6.00;6.00;;;;;15.99;54.46;100206.94;5094989;28;8848;-63
2022/06/16 04:39:59;;;;;;;;;6.00;5.50;;;;;16.00;54.17;100197.06;5112192;28;8823;-63
2022/06/16 04:42:27;;;;;;;;;5.50;5.50;;;;;16.00;54.43;100205.13;5115634;28;8882;-62
2022/06/16 04:44:55;;;;;;;;;6.00;6.00;;;;;16.02;54.41;100203.13;5115473;28;8835;-63
2022/06/16 04:47:23;;;;;;;;;4.50;4.50;;;;;16.09;54.42;100202.34;5115127;28;8854;-63
2022/06/16 04:49:51;;;;;;;;;6.50;6.50;;;;;16.18;53.76;100210.38;5098459;28;8826;-63
2022/06/16 04:52:19;;;;;;;;;7.50;6.75;;;;;16.26;54.04;100202.38;5094604;28;8903;-62
2022/06/16 04:54:46;;;;;;;;;6.50;6.50;;;;;16.34;53.67;100220.47;5094835;28;8822;-64
2022/06/16 04:57:21;;;;;;;;;6.00;6.00;;;;;16.39;53.65;100221.72;5094345;28;8861;-63
2022/06/16 04:59:49;;;;;;;;;6.00;6.00;;;;;16.46;53.24;100227.31;5111122;28;8816;-62
2022/06/16 05:02:37;;;;;;;;;6.25;6.00;;;;;16.55;53.25;100219.19;5115478;28;8835;-63
2022/06/16 05:05:05;;;;;;;;;7.67;6.33;;;;;16.63;53.23;100215.75;5116216;28;8835;-62
2022/06/16 05:07:33;;;;;;;;;7.00;7.00;;;;;16.67;53.21;100217.97;5115934;28;9920;-62
2022/06/16 05:10:01;;;;;;;;;6.00;5.00;;;;;16.77;52.32;100205.28;5098369;28;8826;-62
2022/06/16 05:12:29;;;;;;;;;6.00;5.50;;;;;16.85;52.72;100218.81;5095418;28;8850;-63
2022/06/16 05:14:56;;;;;;;;;6.50;6.50;;;;;16.85;52.90;100213.44;5095445;28;8834;-63
2022/06/16 05:17:24;;;;;;;;;6.50;6.50;;;;;16.90;52.55;100212.97;5095554;28;8837;-63
2022/06/16 05:19:52;;;;;;;;;6.75;6.00;;;;;16.99;52.30;100212.88;5110516;28;8828;-63
2022/06/16 05:22:20;;;;;;;;;7.25;6.75;;;;;17.11;52.30;100222.41;5115945;28;8831;-63
2022/06/16 05:24:48;;;;;;;;;7.00;6.00;;;;;17.24;52.11;100224.69;5119182;28;8977;-63
2022/06/16 05:27:17;;;;;;;;;6.25;6.25;;;;;17.35;51.53;100236.03;5119833;28;8859;-63
2022/06/16 05:29:45;;;;;;;;;8.50;7.00;;;;;17.43;51.81;100237.97;5104640;28;8828;-64
2022/06/16 05:32:13;;;;;;;;;5.50;5.50;;;;;17.50;51.57;100229.09;5099052;28;8822;-64
2022/06/16 05:34:42;;;;;;;;;4.50;3.75;;;;;17.60;51.35;100243.28;5098925;28;8964;-63
2022/06/16 05:37:10;;;;;;;;;10.50;9.00;;;;;17.70;51.36;100257.50;5099277;28;8841;-62
2022/06/16 05:39:38;;;;;;;;;6.00;6.00;;;;;17.77;50.89;100261.22;5112031;28;8843;-63
2022/06/16 05:42:08;;;;;;;;;7.00;7.00;;;;;17.83;50.85;100257.91;5118594;28;8840;-62
2022/06/16 05:44:36;;;;;;;;;7.80;7.80;;;;;17.91;51.28;100254.44;5117966;28;8815;-62
2022/06/16 05:47:04;;;;;;;;;8.20;8.20;;;;;17.96;51.08;100258.31;5118014;28;8846;-62
2022/06/16 05:49:33;;;;;;;;;4.40;3.20;;;;;18.03;50.67;100261.19;5105484;28;8832;-63
2022/06/16 05:52:02;;;;;;;;;5.20;5.20;;;;;18.09;50.21;100258.72;5097670;28;8833;-63
2022/06/16 05:54:30;;;;;;;;;6.00;6.00;;;;;18.15;50.64;100262.63;5097404;28;9665;-63
2022/06/16 05:56:58;;;;;;;;;8.60;8.60;;;;;18.21;50.45;100268.19;5097578;28;8964;-63
2022/06/16 05:59:26;;;;;;;;;7.80;6.80;;;;;18.26;50.63;100273.97;5108964;28;8824;-63
2022/06/16 06:01:55;;;;;;;;;10.00;8.50;;;;;18.30;50.35;100272.63;5118919;28;8903;-63
2022/06/16 06:04:23;;;;;;;;;6.40;4.80;;;;;18.32;50.08;100267.94;5118283;28;8815;-63
2022/06/16 06:06:54;;;;;;;;;9.00;7.40;;;;;18.40;50.66;100265.28;5118975;28;9525;-63
2022/06/16 06:17:38;;;;;;;;;7.40;6.40;;;;;18.61;50.33;100278.31;5047477;28;8834;-62
2022/06/16 06:20:05;;;;;;;;;4.00;4.00;;;;;18.65;50.20;100275.13;5099272;28;8814;-62
2022/06/16 06:22:33;;;;;;;;;1.80;1.00;;;;;18.74;50.08;100276.00;5078185;28;8832;-63
2022/06/16 06:25:01;;;;;;;;;5.20;5.20;;;;;18.77;50.05;100279.19;5077841;28;8864;-63
2022/06/16 06:27:29;;;;;;;;;4.80;3.00;;;;;18.83;49.95;100270.41;5077386;28;8860;-62
2022/06/16 06:30:04;;;;;;;;;2.80;2.60;;;;;18.86;50.31;100280.03;5108413;28;8873;-62
2022/06/16 06:32:32;;;;;;;;;7.00;6.60;;;;;18.93;49.95;100279.22;5118618;28;8927;-63
2022/06/16 06:35:01;;;;;;;;;6.80;6.80;;;;;19.01;49.93;100291.88;5117484;28;8862;-63
2022/06/16 06:37:29;;;;;;;;;5.60;4.00;;;;;19.08;49.62;100295.59;5118320;28;8831;-63
2022/06/16 06:39:57;;;;;;;;;2.40;1.80;;;;;19.15;49.51;100297.47;5102945;28;9494;-62
2022/06/16 06:42:24;;;;;;;;;3.60;2.40;;;;;19.24;49.28;100301.91;5097719;28;8864;-62
2022/06/16 06:44:52;;;;;;;;;5.80;5.40;;;;;19.32;49.47;100299.19;5098311;28;8956;-63
2022/06/16 06:47:20;;;;;;;;;5.40;4.80;;;;;19.40;49.26;100311.84;5098167;28;8964;-63
2022/06/16 06:49:48;;;;;;;;;9.80;7.00;;;;;19.46;49.47;100321.97;5097256;28;9507;-62
2022/06/16 06:52:16;;;;;;;;;4.20;4.00;;;;;19.50;48.80;100321.47;5115024;28;8836;-62
2022/06/16 06:54:45;;;;;;;;;1.80;1.80;;;;;19.51;49.16;100323.16;5117692;28;8908;-62
2022/06/16 06:57:13;;;;;;;;;7.20;6.60;;;;;19.57;48.94;100330.59;5118503;28;8844;-63
2022/06/16 06:59:41;;;;;;;;;4.60;4.40;;;;;19.66;49.06;100334.97;5118171;28;8851;-63
2022/06/16 07:02:09;;;;;;;;;5.00;4.60;;;;;19.73;48.49;100333.28;5117665;28;8849;-62
2022/06/16 07:04:37;;;;;;;;;4.40;4.40;;;;;19.83;48.39;100333.09;5109655;28;8853;-63
2022/06/16 07:07:05;;;;;;;;;3.60;2.00;;;;;19.93;48.47;100329.19;5097386;28;8980;-63
2022/06/16 07:09:33;;;;;;;;;4.60;4.60;;;;;19.99;48.45;100338.47;5097379;28;8856;-63
2022/06/16 07:12:01;;;;;;;;;5.80;5.80;;;;;20.05;48.50;100333.28;5097339;28;8881;-63
2022/06/16 07:14:30;;;;;;;;;5.40;5.40;;;;;20.12;48.39;100344.22;5097678;28;9594;-63
2022/06/16 07:16:58;;;;;;;;;4.00;4.00;;;;;20.15;48.32;100327.66;5096371;28;8861;-63
2022/06/16 07:19:27;;;;;;;;;5.40;5.40;;;;;20.21;48.41;100330.53;5096906;28;8849;-63
2022/06/16 07:21:54;;;;;;;;;5.80;5.80;;;;;20.25;47.87;100323.72;5115986;28;8835;-63
2022/06/16 07:24:22;;;;;;;;;7.60;5.80;;;;;20.30;47.98;100323.19;5117187;28;8946;-63
2022/06/16 07:26:50;;;;;;;;;5.40;4.00;;;;;20.31;48.10;100316.78;5117295;28;8965;-64
2022/06/16 07:29:18;;;;;;;;;7.40;6.40;;;;;20.36;47.58;100315.25;5117445;28;8824;-63
2022/06/16 07:31:46;;;;;;;;;7.00;5.00;;;;;20.40;47.96;100329.28;5117146;28;8831;-63
2022/06/16 07:34:15;;;;;;;;;7.00;5.00;;;;;20.48;48.08;100330.06;5116923;28;8920;-63
2022/06/16 07:36:43;;;;;;;;;4.00;3.60;;;;;20.53;47.96;100335.81;5116713;28;8852;-62
2022/06/16 07:39:10;;;;;;;;;5.00;5.00;;;;;20.56;47.86;100331.91;5076639;28;9021;-62
2022/06/16 07:41:39;;;;;;;;;5.80;4.20;;;;;20.57;47.48;100326.31;5076204;28;8929;-63
2022/06/16 07:44:06;;;;;;;;;5.00;4.20;;;;;20.62;47.88;100323.91;5076054;28;8828;-63
2022/06/16 07:46:35;;;;;;;;;5.00;5.00;;;;;20.71;47.97;100330.16;5074994;28;8839;-62
2022/06/16 07:49:04;;;;;;;;;7.00;5.40;;;;;20.77;47.63;100338.38;5075856;28;8973;-62
2022/06/16 07:51:32;;;;;;;;;7.20;7.20;;;;;20.81;47.27;100345.16;5075061;28;8828;-62
2022/06/16 07:54:00;;;;;;;;;4.60;3.20;;;;;20.87;47.08;100346.31;5076054;28;8859;-62
2022/06/16 07:56:27;;;;;;;;;5.00;5.00;;;;;20.94;47.18;100349.00;5083760;28;8970;-63
2022/06/16 07:58:56;;;;;;;;;4.00;4.00;;;;;20.99;47.17;100356.56;5095572;28;8944;-63
2022/06/16 08:01:23;;;;;;;;;4.20;3.60;;;;;21.04;47.19;100362.31;5094324;28;9533;-62
2022/06/16 08:03:51;;;;;;;;;1.20;1.20;;;;;21.14;46.96;100360.22;5094863;28;8837;-62
2022/06/16 08:06:20;;;;;;;;;4.20;4.00;;;;;21.23;46.61;100359.13;5095907;28;8826;-64
2022/06/16 08:08:48;;;;;;;;;5.00;5.00;;;;;21.29;46.37;100361.13;5096122;28;8846;-62
2022/06/16 08:13:57;;;;;;;;;5.80;5.00;;;;;21.27;46.79;100361.28;5095065;28;8854;-62
2022/06/16 08:16:25;;;;;;;;;6.40;6.40;;;;;21.29;46.87;100358.41;5096119;28;8830;-62
2022/06/16 08:18:54;;;;;;;;;4.80;4.80;;;;;21.31;46.50;100364.50;5106517;28;8820;-63
2022/06/16 08:21:21;;;;;;;;;6.80;5.40;;;;;21.35;46.72;100358.53;5116006;28;9481;-63
2022/06/16 08:23:49;;;;;;;;;5.00;5.00;;;;;21.41;46.76;100363.22;5116130;28;8954;-62
2022/06/16 08:26:17;;;;;;;;;2.80;2.80;;;;;21.46;46.65;100366.25;5114649;28;8967;-64
2022/06/16 08:28:45;;;;;;;;;6.80;5.40;;;;;21.53;46.24;100367.22;5101774;28;8830;-63
2022/06/16 08:31:13;;;;;;;;;2.00;1.20;;;;;21.61;46.01;100364.44;5095694;28;8842;-62
2022/06/16 08:33:41;;;;;;;;;7.60;7.00;;;;;21.71;46.31;100370.47;5095305;28;8853;-62
2022/06/16 08:36:09;;;;;;;;;4.00;4.00;;;;;21.78;45.93;100376.03;5095328;28;8842;-63
2022/06/16 08:38:37;;;;;;;;;5.00;5.00;;;;;21.86;45.97;100375.97;5096007;28;8964;-63
2022/06/16 08:41:15;;;;;;;;;6.20;5.00;;;;;21.98;45.15;100382.59;5096595;28;8870;-63
2022/06/16 08:43:42;;;;;;;;;4.40;4.40;;;;;22.09;45.47;100390.31;5115735;28;8916;-63
2022/06/16 08:46:11;;;;;;;;;5.00;4.00;;;;;22.13;45.56;100384.34;5115073;28;8858;-62
2022/06/16 08:48:40;;;;;;;;;6.20;5.80;;;;;22.21;45.56;100383.38;5114317;28;8828;-62
2022/06/16 08:51:08;;;;;;;;;4.00;4.00;;;;;22.31;45.28;100382.09;5114854;28;8966;-63
2022/06/16 08:53:36;;;;;;;;;2.00;2.00;;;;;22.41;45.25;100379.13;5114844;28;8962;-63
2022/06/16 08:56:03;;;;;;;;;5.60;4.20;;;;;22.53;44.75;100380.38;5114513;28;8832;-63
2022/06/16 08:58:32;;;;;;;;;5.00;4.80;;;;;22.57;44.81;100373.53;5116140;28;8842;-63
2022/06/16 09:00:59;;;;;;;;;2.00;1.00;;;;;22.61;44.78;100380.28;5119430;28;8832;-63
2022/06/16 09:03:27;;;;;;;;;4.00;4.00;;;;;22.62;44.34;100387.38;5112105;28;8832;-63
2022/06/16 09:05:55;;;;;;;;;1.40;1.40;;;;;22.72;44.28;100387.94;5099386;28;8930;-63
2022/06/16 09:08:23;;;;;;;;;2.80;2.40;;;;;22.79;44.46;100394.28;5099469;28;8961;-63
2022/06/16 09:10:51;;;;;;;;;3.60;2.00;;;;;22.87;44.31;100391.47;5099274;28;8956;-63
2022/06/16 09:13:19;;;;;;;;;4.00;4.00;;;;;22.98;44.15;100372.00;5098736;28;8854;-63
2022/06/16 09:15:47;;;;;;;;;1.80;1.80;;;;;23.06;44.20;100389.00;5098966;28;8838;-63
2022/06/16 09:18:15;;;;;;;;;2.00;2.00;;;;;23.08;43.86;100388.81;5099530;28;8958;-63
2022/06/16 09:20:43;;;;;;;;;2.00;2.00;;;;;23.14;43.23;100388.06;5098943;28;9005;-63
2022/06/16 09:23:10;;;;;;;;;2.00;2.00;;;;;23.25;43.67;100390.28;5098799;28;8965;-63
2022/06/16 09:25:38;;;;;;;;;1.60;1.00;;;;;23.33;43.35;100392.91;5099468;28;8849;-63
2022/06/16 09:28:11;;;;;;;;;3.00;3.00;;;;;23.50;42.95;100399.75;5117294;28;8828;-64
2022/06/16 09:30:39;;;;;;;;;1.00;1.00;;;;;23.63;42.53;100397.19;5118984;28;8950;-64
2022/06/16 09:33:06;;;;;;;;;2.00;2.00;;;;;23.76;42.35;100403.59;5119889;28;8850;-65
2022/06/16 09:35:34;;;;;;;;;2.60;2.60;;;;;23.91;41.92;100404.38;5119089;28;8828;-63
2022/06/16 09:38:02;;;;;;;;;2.00;2.00;;;;;23.99;41.68;100407.00;5119273;28;8901;-63
2022/06/16 09:40:35;;;;;;;;;2.00;1.40;;;;;24.04;41.79;100420.00;5119181;28;8872;-63
2022/06/16 09:43:03;;;;;;;;;1.40;1.40;;;;;24.13;41.85;100419.66;5118665;28;8978;-63
2022/06/16 09:45:30;;;;;;;;;1.80;1.80;;;;;24.23;41.61;100422.91;5117608;28;8962;-63
2022/06/16 09:47:59;;;;;;;;;2.00;2.00;;;;;24.33;41.44;100406.19;5117592;28;8835;-68
2022/06/16 09:50:27;;;;;;;;;2.00;2.00;;;;;24.41;41.34;100417.78;5117608;28;8816;-63
2022/06/16 09:52:55;;;;;;;;;2.80;2.40;;;;;24.49;40.82;100414.06;5102534;28;8895;-63
2022/06/16 09:55:23;;;;;;;;;2.60;2.60;;;;;24.57;40.55;100416.69;5096435;28;8970;-63
2022/06/16 09:57:51;;;;;;;;;1.60;1.00;;;;;24.70;40.88;100416.72;5096744;28;8826;-64
2022/06/16 10:00:20;;;;;;;;;2.00;2.00;;;;;24.91;39.84;100414.78;5096445;28;9491;-63
2022/06/16 10:02:48;;;;;;;;;5.00;3.00;;;;;25.17;39.61;100424.97;5095981;28;8834;-63
2022/06/16 10:05:16;;;;;;;;;1.60;1.00;;;;;25.44;38.93;100422.13;5096436;28;8846;-63
2022/06/16 10:07:43;;;;;;;;;0.80;0.80;;;;;25.76;38.84;100416.75;5096432;28;8830;-63
2022/06/16 10:10:11;;;;;;;;;1.00;1.00;;;;;26.06;37.99;100423.53;5094934;28;8948;-63
2022/06/16 10:12:39;;;;;;;;;1.00;1.00;;;;;26.36;38.05;100427.53;5096225;28;8846;-63
2022/06/16 10:15:07;;;;;;;;;0.80;0.80;;;;;26.65;37.39;100427.06;5098125;28;8838;-64
2022/06/16 10:17:35;;;;;;;;;2.00;2.00;;;;;26.92;37.30;100436.88;5097947;28;8980;-63
2022/06/16 10:20:04;;;;;;;;;0.80;0.40;;;;;27.27;36.05;100441.00;5111299;28;8939;-64
2022/06/16 10:22:32;;;;;;;;;1.40;1.40;;;;;27.57;36.14;100442.13;5117462;28;8816;-64
2022/06/16 10:24:59;;;;;;;;;2.00;1.00;;;;;27.83;35.99;100439.25;5118443;28;8989;-64
2022/06/16 10:27:27;;;;;;;;;1.00;1.00;;;;;28.16;35.91;100445.31;5117521;28;8832;-63
2022/06/16 10:29:55;;;;;;;;;1.00;1.00;;;;;28.50;34.71;100454.94;5117814;28;8916;-64
2022/06/16 10:32:23;;;;;;;;;1.00;1.00;;;;;28.83;34.06;100459.03;5117766;28;8838;-64
2022/06/16 10:34:51;;;;;;;;;0.00;0.00;;;;;29.14;34.14;100469.09;5117858;28;8954;-64
2022/06/16 10:37:19;;;;;;;;;1.00;1.00;;;;;29.38;33.63;100463.53;5117785;28;8828;-63
2022/06/16 10:39:47;;;;;;;;;1.00;1.00;;;;;29.66;33.95;100462.97;5117930;28;8954;-65
2022/06/16 10:42:15;;;;;;;;;1.80;1.00;;;;;29.97;33.82;100469.06;5118341;28;8860;-65
2022/06/16 10:44:43;;;;;;;;;1.00;1.00;;;;;30.20;33.22;100474.66;5118179;28;8833;-64
2022/06/16 10:47:10;;;;;;;;;1.40;1.40;;;;;30.39;32.89;100473.47;5117387;28;8965;-64
2022/06/16 10:49:39;;;;;;;;;0.40;0.40;;;;;30.54;32.79;100473.03;5097001;28;8849;-64
2022/06/16 10:52:07;;;;;;;;;1.00;1.00;;;;;30.76;32.53;100469.47;5095731;28;8837;-65
2022/06/16 10:54:35;;;;;;;;;1.00;1.00;;;;;31.03;32.57;100468.72;5096038;28;9714;-64
2022/06/16 10:57:03;;;;;;;;;1.00;1.00;;;;;31.28;31.47;100462.97;5095801;28;8845;-64
2022/06/16 10:59:30;;;;;;;;;0.00;0.00;;;;;31.37;31.75;100467.84;5095745;28;8838;-64
2022/06/16 11:01:58;;;;;;;;;1.00;1.00;;;;;31.52;31.42;100470.06;5096204;28;8842;-64
2022/06/16 11:04:26;;;;;;;;;0.40;0.40;;;;;31.68;31.54;100466.53;5096063;28;8872;-64
2022/06/16 11:06:55;;;;;;;;;1.40;1.00;;;;;31.86;31.40;100466.38;5096288;28;8850;-64
2022/06/16 11:09:22;;;;;;;;;0.80;0.80;;;;;31.99;30.89;100471.56;5097152;28;8923;-64
2022/06/16 11:11:53;;;;;;;;;1.00;1.00;;;;;31.98;31.01;100464.38;5097026;28;8942;-64
2022/06/16 11:14:22;;;;;;;;;1.00;1.00;;;;;32.06;31.01;100475.00;5097055;28;8869;-64
2022/06/16 11:16:49;;;;;;;;;1.00;1.00;;;;;32.08;30.76;100478.38;5096747;28;8845;-64
2022/06/16 11:19:18;;;;;;;;;0.00;0.00;;;;;32.22;30.93;100490.75;5113866;28;8858;-63
2022/06/16 11:21:46;;;;;;;;;1.00;1.00;;;;;32.44;30.57;100494.47;5116278;28;9628;-64
2022/06/16 11:24:13;;;;;;;;;0.80;0.80;;;;;32.71;30.73;100479.72;5117187;28;8977;-64
2022/06/16 11:26:41;;;;;;;;;1.00;1.00;;;;;32.91;30.09;100490.31;5117206;28;8847;-64
2022/06/16 11:29:10;;;;;;;;;0.80;0.80;;;;;32.97;29.88;100492.88;5116078;28;8831;-63
2022/06/16 11:31:40;;;;;;;;;1.40;1.40;;;;;33.03;29.53;100477.22;5116816;28;8948;-64
2022/06/16 11:34:08;;;;;;;;;1.00;1.00;;;;;33.09;30.13;100476.19;5116611;28;8835;-64
2022/06/16 11:36:36;;;;;;;;;1.00;1.00;;;;;33.13;29.27;100474.59;5115586;28;8843;-63
2022/06/16 11:39:04;;;;;;;;;2.00;2.00;;;;;33.25;29.78;100473.44;5115932;28;9535;-64
2022/06/16 11:41:33;;;;;;;;;1.00;1.00;;;;;33.38;29.64;100475.78;5116063;28;8840;-64
2022/06/16 11:44:01;;;;;;;;;2.60;2.00;;;;;33.66;28.60;100470.06;5116605;28;8966;-64
2022/06/16 11:46:29;;;;;;;;;1.00;1.00;;;;;33.91;28.40;100464.81;5115510;28;8820;-64
2022/06/16 11:48:57;;;;;;;;;1.80;1.00;;;;;34.01;29.01;100453.03;5097551;28;8857;-64
2022/06/16 11:51:25;;;;;;;;;1.00;1.00;;;;;34.05;28.55;100451.44;5095338;28;8845;-64